createdAt,value
2022-08-31T00:02:42.873Z,9.50
2022-08-31T00:05:10.642Z,11.53
2022-08-31T00:07:38.021Z,9.83
2022-08-31T00:10:14.774Z,10.00
2022-08-31T00:12:47.269Z,10.43
2022-08-31T00:15:17.831Z,10.10
2022-08-31T00:17:45.306Z,11.20
2022-08-31T00:20:32.621Z,9.47
2022-08-31T00:23:01.701Z,10.33
2022-08-31T00:25:28.439Z,10.90
2022-08-31T00:27:55.816Z,10.53
2022-08-31T00:30:23.504Z,10.33
2022-08-31T00:32:50.324Z,9.73
2022-08-31T00:35:17.357Z,9.93
2022-08-31T00:37:44.192Z,10.03
2022-08-31T00:40:12.176Z,14.50
2022-08-31T00:42:38.929Z,10.47
2022-08-31T00:45:06.867Z,10.50
2022-08-31T00:47:33.673Z,10.43
2022-08-31T00:50:02.175Z,11.60
2022-08-31T00:52:37.714Z,11.23
2022-08-31T00:55:17.005Z,10.80
2022-08-31T00:57:47.969Z,10.70
2022-08-31T01:00:19.822Z,11.20
2022-08-31T01:02:47.322Z,12.07
2022-08-31T01:05:14.827Z,11.10
2022-08-31T01:07:42.174Z,10.20
2022-08-31T01:10:10.221Z,10.33
2022-08-31T01:12:37.353Z,11.23
2022-08-31T01:15:07.277Z,9.10
2022-08-31T01:17:35.399Z,9.33
2022-08-31T01:20:20.707Z,11.90
2022-08-31T01:23:05.283Z,10.80
2022-08-31T01:25:33.773Z,11.30
2022-08-31T01:28:04.501Z,11.73
2022-08-31T01:30:31.651Z,10.80
2022-08-31T01:32:58.456Z,10.97
2022-08-31T01:35:26.085Z,11.50
2022-08-31T01:37:53.809Z,11.13
2022-08-31T01:40:20.735Z,11.07
2022-08-31T01:42:47.551Z,10.97
2022-08-31T01:45:14.275Z,12.10
2022-08-31T01:47:41.525Z,13.80
2022-08-31T01:50:09.413Z,9.73
2022-08-31T01:52:39.087Z,10.90
2022-08-31T01:55:07.384Z,8.77
2022-08-31T01:57:34.757Z,12.73
2022-08-31T02:00:08.789Z,11.13
2022-08-31T02:02:35.750Z,10.70
2022-08-31T02:05:02.524Z,9.87
2022-08-31T02:07:29.223Z,9.53
2022-08-31T02:09:55.926Z,11.93
2022-08-31T02:12:22.616Z,13.13
2022-08-31T02:14:49.309Z,17.40
2022-08-31T02:17:16.325Z,11.30
2022-08-31T02:19:43.044Z,9.60
2022-08-31T02:22:09.794Z,9.87
2022-08-31T02:24:36.595Z,13.87
2022-08-31T02:27:03.510Z,10.40
2022-08-31T02:29:30.290Z,11.43
2022-08-31T02:31:58.548Z,12.73
2022-08-31T02:34:25.451Z,14.70
2022-08-31T02:36:52.136Z,12.00
2022-08-31T02:39:18.801Z,11.37
2022-08-31T02:41:45.662Z,9.90
2022-08-31T02:44:12.574Z,11.23
2022-08-31T02:46:39.353Z,11.80
2022-08-31T02:49:06.127Z,11.83
2022-08-31T02:51:32.773Z,11.33
2022-08-31T02:53:59.646Z,10.90
2022-08-31T02:56:26.369Z,10.57
2022-08-31T02:58:55.065Z,10.20
2022-08-31T03:01:23.873Z,10.77
2022-08-31T03:03:51.101Z,11.93
2022-08-31T03:06:19.399Z,9.80
2022-08-31T03:08:47.514Z,8.83
2022-08-31T03:11:15.075Z,11.03
2022-08-31T03:13:42.947Z,8.90
2022-08-31T03:16:12.245Z,9.43
2022-08-31T03:18:38.966Z,10.87
2022-08-31T03:21:05.798Z,11.30
2022-08-31T03:23:32.480Z,10.97
2022-08-31T03:25:59.991Z,11.20
2022-08-31T03:28:26.698Z,11.23
2022-08-31T03:30:53.444Z,11.43
2022-08-31T03:33:20.356Z,10.77
2022-08-31T03:35:47.139Z,10.93
2022-08-31T03:38:15.903Z,11.73
2022-08-31T03:40:44.290Z,12.60
2022-08-31T03:43:11.890Z,10.30
2022-08-31T03:45:40.249Z,12.10
2022-08-31T03:48:11.931Z,13.03
2022-08-31T03:50:40.745Z,9.97
2022-08-31T03:53:08.595Z,11.20
2022-08-31T03:55:39.068Z,9.53
2022-08-31T03:58:07.129Z,10.60
2022-08-31T04:00:35.395Z,9.87
2022-08-31T04:03:02.316Z,12.20
2022-08-31T04:05:30.749Z,11.03
2022-08-31T04:07:57.700Z,10.80
2022-08-31T04:10:24.586Z,10.10
2022-08-31T04:12:51.888Z,10.50
2022-08-31T04:15:19.022Z,10.73
2022-08-31T04:17:46.396Z,10.77
2022-08-31T04:20:13.473Z,10.60
2022-08-31T04:22:40.140Z,10.20
2022-08-31T04:25:07.398Z,11.60
2022-08-31T04:27:34.051Z,10.77
2022-08-31T04:30:02.000Z,13.03
2022-08-31T04:32:29.733Z,11.00
2022-08-31T04:34:56.773Z,10.13
2022-08-31T04:37:23.587Z,14.07
2022-08-31T04:39:52.214Z,12.20
2022-08-31T04:42:19.514Z,17.80
2022-08-31T04:44:46.369Z,12.67
2022-08-31T04:47:13.045Z,13.83
2022-08-31T04:49:40.594Z,12.10
2022-08-31T04:52:08.256Z,11.17
2022-08-31T04:54:35.247Z,11.57
2022-08-31T04:57:02.176Z,11.37
2022-08-31T04:59:28.901Z,10.77
2022-08-31T05:01:55.818Z,10.80
2022-08-31T05:04:26.083Z,9.70
2022-08-31T05:06:52.887Z,10.63
2022-08-31T05:09:22.735Z,11.70
2022-08-31T05:11:51.700Z,10.67
2022-08-31T05:14:18.777Z,11.03
2022-08-31T05:16:46.049Z,10.57
2022-08-31T05:19:13.194Z,10.10
2022-08-31T05:21:42.054Z,13.43
2022-08-31T05:24:12.330Z,14.40
2022-08-31T05:26:44.499Z,10.77
2022-08-31T05:29:14.418Z,11.27
2022-08-31T05:31:43.351Z,16.30
2022-08-31T05:34:12.593Z,11.30
2022-08-31T05:36:40.490Z,11.17
2022-08-31T05:39:11.847Z,9.70
2022-08-31T05:41:43.935Z,10.97
2022-08-31T05:44:11.631Z,14.33
2022-08-31T05:46:38.952Z,13.70
2022-08-31T05:49:07.208Z,10.67
2022-08-31T05:51:38.355Z,10.93
2022-08-31T05:54:06.369Z,11.43
2022-08-31T05:56:34.524Z,14.20
2022-08-31T05:59:01.254Z,15.77
2022-08-31T06:01:30.782Z,12.13
2022-08-31T06:03:58.590Z,12.50
2022-08-31T06:06:26.513Z,11.20
2022-08-31T06:08:54.016Z,11.40
2022-08-31T06:11:24.727Z,12.17
2022-08-31T06:13:53.520Z,13.10
2022-08-31T06:16:21.360Z,12.57
2022-08-31T06:18:51.676Z,14.53
2022-08-31T06:21:21.537Z,12.60
2022-08-31T06:23:50.709Z,15.73
2022-08-31T06:26:19.823Z,17.53
2022-08-31T06:28:49.063Z,11.20
2022-08-31T06:31:23.738Z,14.93
2022-08-31T06:33:51.940Z,12.80
2022-08-31T06:36:21.129Z,15.40
2022-08-31T06:38:48.035Z,9.80
2022-08-31T06:41:27.147Z,12.33
2022-08-31T06:43:55.132Z,11.13
2022-08-31T06:46:23.330Z,11.43
2022-08-31T06:48:53.137Z,10.73
2022-08-31T06:51:19.819Z,11.67
2022-08-31T06:53:46.785Z,10.30
2022-08-31T06:56:22.707Z,10.73
2022-08-31T06:58:53.686Z,11.33
2022-08-31T07:01:35.161Z,11.50
2022-08-31T07:04:05.461Z,10.77
2022-08-31T07:06:36.334Z,10.60
2022-08-31T07:09:06.386Z,14.10
2022-08-31T07:11:45.006Z,9.90
2022-08-31T07:14:14.701Z,14.00
2022-08-31T07:16:43.044Z,10.97
2022-08-31T07:19:11.667Z,12.53
2022-08-31T07:21:43.148Z,11.20
2022-08-31T07:24:11.924Z,12.80
2022-08-31T07:26:47.151Z,10.37
2022-08-31T07:29:16.164Z,10.30
2022-08-31T07:31:46.550Z,11.20
2022-08-31T07:34:28.767Z,10.23
2022-08-31T07:37:16.921Z,10.33
2022-08-31T07:40:07.075Z,13.30
2022-08-31T07:42:40.575Z,9.53
2022-08-31T07:45:12.781Z,10.10
2022-08-31T07:47:45.272Z,9.13
2022-08-31T07:50:13.164Z,15.97
2022-08-31T07:52:48.436Z,10.00
2022-08-31T07:55:17.758Z,6.97
2022-08-31T07:57:44.889Z,9.27
2022-08-31T08:00:15.293Z,9.30
2022-08-31T08:02:46.245Z,9.53
2022-08-31T08:05:22.800Z,9.23
2022-08-31T08:08:08.410Z,7.07
2022-08-31T08:10:43.537Z,9.80
2022-08-31T08:13:12.507Z,7.30
2022-08-31T08:15:40.652Z,9.43
2022-08-31T08:18:07.670Z,9.10
2022-08-31T08:20:38.056Z,9.30
2022-08-31T08:23:18.503Z,8.30
2022-08-31T08:25:55.886Z,10.07
2022-08-31T08:28:43.118Z,11.23
2022-08-31T08:31:16.651Z,7.67
2022-08-31T08:33:44.396Z,10.30
2022-08-31T08:36:11.700Z,9.90
2022-08-31T08:38:43.584Z,12.03
2022-08-31T08:41:25.139Z,10.33
2022-08-31T08:43:58.644Z,11.00
2022-08-31T08:47:38.618Z,10.23
2022-08-31T08:49:53.981Z,9.80
2022-08-31T08:52:30.610Z,12.53
2022-08-31T08:55:03.686Z,8.23
2022-08-31T08:57:34.511Z,10.33
2022-08-31T09:00:24.890Z,9.23
2022-08-31T09:03:11.472Z,9.70
2022-08-31T09:06:07.087Z,17.43
2022-08-31T09:08:56.187Z,11.73
2022-08-31T09:11:35.587Z,8.40
2022-08-31T09:14:38.719Z,10.70
2022-08-31T09:17:33.625Z,7.17
2022-08-31T09:20:01.526Z,11.63
2022-08-31T09:22:33.691Z,10.53
2022-08-31T09:25:00.507Z,9.43
2022-08-31T09:27:46.830Z,7.57
2022-08-31T09:30:33.130Z,9.70
2022-08-31T09:33:00.286Z,10.60
2022-08-31T09:35:41.240Z,17.43
2022-08-31T09:38:25.426Z,10.87
2022-08-31T09:40:53.130Z,9.23
2022-08-31T09:43:37.510Z,9.03
2022-08-31T09:46:31.597Z,9.17
2022-08-31T09:49:02.996Z,9.93
2022-08-31T09:51:33.792Z,8.60
2022-08-31T09:54:34.093Z,9.80
2022-08-31T09:57:03.073Z,8.93
2022-08-31T09:59:48.299Z,8.43
2022-08-31T10:02:22.129Z,8.70
2022-08-31T10:05:26.817Z,7.43
2022-08-31T10:08:04.278Z,8.47
2022-08-31T10:10:35.785Z,8.00
2022-08-31T10:13:14.804Z,8.77
2022-08-31T10:15:52.927Z,7.57
2022-08-31T10:18:26.247Z,8.60
2022-08-31T10:20:59.592Z,8.33
2022-08-31T10:23:54.549Z,9.63
2022-08-31T10:26:31.589Z,12.10
2022-08-31T10:29:02.015Z,9.57
2022-08-31T10:31:36.885Z,9.50
2022-08-31T10:34:31.094Z,7.80
2022-08-31T10:37:12.549Z,7.80
2022-08-31T10:39:47.806Z,10.43
2022-08-31T10:42:30.702Z,8.80
2022-08-31T10:45:09.197Z,11.23
2022-08-31T10:47:41.516Z,12.43
2022-08-31T10:50:10.951Z,14.23
2022-08-31T10:53:15.447Z,14.63
2022-08-31T10:55:46.535Z,8.67
2022-08-31T10:58:46.179Z,8.57
2022-08-31T11:01:48.508Z,11.87
2022-08-31T11:04:25.932Z,9.00
2022-08-31T11:07:08.021Z,8.07
2022-08-31T11:09:49.669Z,7.90
2022-08-31T11:12:21.643Z,6.60
2022-08-31T11:14:48.453Z,6.37
2022-08-31T11:17:41.267Z,6.83
2022-08-31T11:20:43.150Z,6.43
2022-08-31T11:23:32.271Z,6.73
2022-08-31T11:26:31.904Z,6.33
2022-08-31T11:29:28.859Z,6.97
2022-08-31T11:32:03.552Z,6.60
2022-08-31T11:34:42.471Z,6.43
2022-08-31T11:37:09.774Z,7.67
2022-08-31T11:39:40.224Z,6.10
2022-08-31T11:42:18.931Z,7.73
2022-08-31T11:44:59.887Z,6.83
2022-08-31T11:47:29.984Z,7.30
2022-08-31T11:50:02.342Z,10.67
2022-08-31T11:52:45.174Z,11.70
2022-08-31T11:55:51.927Z,6.23
2022-08-31T11:58:25.968Z,9.53
2022-08-31T12:01:09.465Z,8.00
2022-08-31T12:03:44.127Z,10.37
2022-08-31T12:06:35.487Z,10.97
2022-08-31T12:09:02.110Z,7.00
2022-08-31T12:11:47.616Z,8.33
2022-08-31T12:14:14.500Z,11.37
2022-08-31T12:17:02.950Z,7.40
2022-08-31T12:20:02.127Z,6.10
2022-08-31T12:23:30.436Z,7.20
2022-08-31T12:26:34.954Z,5.40
2022-08-31T12:29:16.648Z,7.77
2022-08-31T12:32:00.031Z,8.77
2022-08-31T12:34:28.147Z,8.83
2022-08-31T12:36:54.863Z,9.33
2022-08-31T12:39:28.690Z,7.40
2022-08-31T12:42:03.621Z,7.53
2022-08-31T12:44:49.987Z,8.27
2022-08-31T12:47:24.267Z,7.03
2022-08-31T12:50:17.820Z,9.27
2022-08-31T12:53:22.163Z,7.97
2022-08-31T12:56:01.131Z,9.80
2022-08-31T12:59:09.641Z,11.00
2022-08-31T13:01:42.235Z,8.23
2022-08-31T13:04:10.672Z,12.80
2022-08-31T13:06:40.746Z,11.30
2022-08-31T13:09:07.821Z,13.63
2022-08-31T13:11:41.781Z,12.90
2022-08-31T13:14:24.577Z,10.57
2022-08-31T13:17:03.946Z,10.70
2022-08-31T13:19:34.195Z,10.27
2022-08-31T13:22:07.924Z,11.73
2022-08-31T13:24:41.061Z,9.80
2022-08-31T13:27:17.777Z,9.93
2022-08-31T13:29:45.963Z,14.17
2022-08-31T13:32:23.491Z,9.93
2022-08-31T13:34:50.204Z,9.73
2022-08-31T13:37:28.386Z,9.73
2022-08-31T13:39:55.979Z,7.80
2022-08-31T13:42:41.858Z,9.37
2022-08-31T13:45:39.220Z,8.97
2022-08-31T13:48:18.851Z,10.23
2022-08-31T13:50:53.177Z,8.20
2022-08-31T13:53:42.249Z,9.57
2022-08-31T13:56:46.718Z,10.10
2022-08-31T13:59:24.167Z,9.67
2022-08-31T14:01:52.184Z,10.27
2022-08-31T14:04:50.376Z,9.27
2022-08-31T14:07:25.481Z,7.43
2022-08-31T14:10:01.919Z,11.77
2022-08-31T14:12:36.215Z,8.30
2022-08-31T14:15:17.510Z,10.40
2022-08-31T14:20:49.638Z,9.50
2022-08-31T14:23:29.817Z,10.10
2022-08-31T14:26:02.431Z,9.77
2022-08-31T14:28:43.112Z,9.30
2022-08-31T14:31:24.237Z,9.23
2022-08-31T14:34:03.743Z,9.27
2022-08-31T14:36:35.442Z,8.97
2022-08-31T14:39:02.139Z,8.83
2022-08-31T14:41:32.686Z,9.07
2022-08-31T14:44:09.231Z,8.23
2022-08-31T14:46:41.873Z,9.10
2022-08-31T14:49:10.727Z,10.90
2022-08-31T14:51:39.069Z,8.43
2022-08-31T14:54:08.929Z,10.83
2022-08-31T14:56:46.717Z,8.20
2022-08-31T14:59:16.173Z,10.23
2022-08-31T15:01:44.852Z,9.37
2022-08-31T15:04:17.829Z,9.33
2022-08-31T15:06:50.037Z,10.60
2022-08-31T15:09:16.789Z,10.13
2022-08-31T15:11:44.193Z,11.07
2022-08-31T15:14:14.040Z,9.30
2022-08-31T15:16:43.620Z,9.57
2022-08-31T15:19:14.629Z,10.13
2022-08-31T15:21:52.185Z,13.00
2022-08-31T15:24:24.591Z,10.43
2022-08-31T15:26:54.128Z,8.80
2022-08-31T15:29:24.753Z,10.63
2022-08-31T15:31:54.897Z,9.47
2022-08-31T15:34:26.262Z,7.73
2022-08-31T15:37:02.056Z,8.60
2022-08-31T15:39:48.772Z,8.20
2022-08-31T15:42:20.719Z,7.13
2022-08-31T15:44:55.920Z,8.93
2022-08-31T15:47:48.071Z,8.00
2022-08-31T15:50:19.349Z,9.10
2022-08-31T15:52:51.744Z,9.73
2022-08-31T15:55:23.590Z,6.80
2022-08-31T15:57:54.362Z,7.73
2022-08-31T16:00:26.505Z,8.47
2022-08-31T16:02:57.303Z,7.23
2022-08-31T16:05:30.535Z,7.77
2022-08-31T16:07:58.010Z,6.30
2022-08-31T16:10:27.710Z,7.33
2022-08-31T16:12:54.463Z,6.63
2022-08-31T16:15:24.658Z,6.40
2022-08-31T16:17:51.960Z,8.00
2022-08-31T16:20:18.818Z,7.37
2022-08-31T16:22:45.570Z,7.93
2022-08-31T16:25:14.349Z,6.90
2022-08-31T16:27:43.413Z,6.23
2022-08-31T16:30:12.642Z,6.23
2022-08-31T16:32:39.619Z,6.90
2022-08-31T16:35:06.896Z,5.27
2022-08-31T16:37:35.253Z,7.23
2022-08-31T16:40:02.224Z,6.00
2022-08-31T16:42:29.086Z,6.60
2022-08-31T16:45:01.288Z,5.70
2022-08-31T16:47:29.534Z,6.23
2022-08-31T16:49:56.852Z,8.53
2022-08-31T16:52:26.748Z,6.90
2022-08-31T16:54:56.944Z,6.80
2022-08-31T16:57:27.185Z,7.80
2022-08-31T16:59:58.815Z,11.63
2022-08-31T17:02:26.364Z,7.90
2022-08-31T17:04:54.309Z,9.53
2022-08-31T17:07:24.197Z,8.20
2022-08-31T17:09:56.073Z,6.50
2022-08-31T17:12:26.194Z,5.80
2022-08-31T17:14:53.524Z,8.23
2022-08-31T17:17:23.039Z,8.53
2022-08-31T17:19:52.121Z,10.93
2022-08-31T17:22:25.621Z,9.20
2022-08-31T17:24:57.695Z,8.20
2022-08-31T17:27:26.110Z,7.67
2022-08-31T17:29:56.322Z,7.37
2022-08-31T17:32:27.638Z,7.80
2022-08-31T17:34:55.370Z,6.40
2022-08-31T17:37:32.735Z,8.43
2022-08-31T17:40:00.448Z,6.30
2022-08-31T17:42:28.641Z,7.60
2022-08-31T17:44:56.732Z,6.33
2022-08-31T17:47:24.918Z,6.30
2022-08-31T17:49:52.670Z,6.77
2022-08-31T17:52:21.821Z,5.97
2022-08-31T17:54:51.159Z,7.27
2022-08-31T17:57:22.324Z,7.23
2022-08-31T17:59:49.333Z,6.67
2022-08-31T18:02:32.578Z,7.87
2022-08-31T18:05:00.494Z,6.80
2022-08-31T18:07:27.946Z,6.13
2022-08-31T18:09:54.732Z,6.50
2022-08-31T18:12:22.828Z,6.73
2022-08-31T18:14:50.090Z,7.17
2022-08-31T18:17:17.263Z,7.90
2022-08-31T18:19:45.194Z,7.97
2022-08-31T18:22:14.455Z,6.00
2022-08-31T18:24:42.609Z,8.30
2022-08-31T18:27:11.112Z,14.20
2022-08-31T18:29:38.989Z,7.73
2022-08-31T18:32:07.633Z,9.30
2022-08-31T18:34:37.184Z,7.87
2022-08-31T18:37:04.950Z,6.57
2022-08-31T18:39:52.710Z,6.93
2022-08-31T18:42:40.005Z,9.10
2022-08-31T18:45:19.145Z,9.30
2022-08-31T18:48:23.807Z,7.00
2022-08-31T18:50:44.419Z,8.87
2022-08-31T18:53:15.505Z,8.70
2022-08-31T18:55:43.878Z,8.10
2022-08-31T18:58:10.942Z,9.17
2022-08-31T19:00:40.386Z,9.17
2022-08-31T19:03:07.988Z,9.13
2022-08-31T19:05:39.176Z,9.87
2022-08-31T19:08:06.233Z,10.77
2022-08-31T19:10:35.002Z,12.70
2022-08-31T19:13:05.405Z,9.70
2022-08-31T19:15:38.760Z,10.37
2022-08-31T19:18:06.064Z,11.13
2022-08-31T19:20:35.290Z,10.10
2022-08-31T19:23:02.325Z,10.43
2022-08-31T19:25:29.555Z,11.37
2022-08-31T19:27:56.666Z,11.37
2022-08-31T19:30:28.121Z,11.67
2022-08-31T19:32:56.884Z,11.97
2022-08-31T19:35:27.318Z,12.23
2022-08-31T19:37:56.884Z,12.17
2022-08-31T19:40:43.328Z,11.77
2022-08-31T19:46:16.019Z,13.30
2022-08-31T19:48:44.681Z,13.70
2022-08-31T19:51:14.363Z,13.23
2022-08-31T19:53:44.499Z,13.00
2022-08-31T19:56:17.700Z,11.53
2022-08-31T19:58:48.882Z,14.73
2022-08-31T20:01:18.260Z,13.97
2022-08-31T20:03:48.013Z,11.67
2022-08-31T20:06:19.481Z,14.27
2022-08-31T20:08:48.136Z,13.67
2022-08-31T20:11:21.456Z,13.33
2022-08-31T20:13:49.495Z,12.00
2022-08-31T20:16:17.121Z,13.60
2022-08-31T20:18:46.466Z,13.90
2022-08-31T20:21:17.418Z,13.73
2022-08-31T20:23:45.789Z,12.80
2022-08-31T20:26:12.649Z,12.27
2022-08-31T20:28:39.634Z,12.77
2022-08-31T20:31:09.375Z,12.00
2022-08-31T20:33:37.229Z,13.30
2022-08-31T20:36:23.341Z,10.53
2022-08-31T20:38:57.161Z,10.13
2022-08-31T20:41:26.080Z,10.87
2022-08-31T20:43:52.866Z,10.37
2022-08-31T20:46:38.634Z,9.50
2022-08-31T20:49:23.798Z,10.30
2022-08-31T20:51:52.136Z,9.83
2022-08-31T20:54:18.829Z,12.87
2022-08-31T20:56:46.234Z,10.50
2022-08-31T20:59:13.291Z,14.30
2022-08-31T21:01:41.010Z,10.60
2022-08-31T21:04:08.370Z,11.60
2022-08-31T21:06:37.035Z,13.83
2022-08-31T21:09:03.937Z,12.50
2022-08-31T21:11:30.690Z,13.00
2022-08-31T21:13:57.535Z,13.80
2022-08-31T21:16:26.050Z,12.83
2022-08-31T21:18:52.797Z,12.60
2022-08-31T21:21:19.466Z,13.30
2022-08-31T21:23:47.948Z,14.27
2022-08-31T21:26:21.436Z,12.60
2022-08-31T21:28:53.228Z,12.17
2022-08-31T21:31:28.535Z,13.93
2022-08-31T21:34:01.122Z,13.53
2022-08-31T21:36:29.769Z,14.40
2022-08-31T21:38:59.628Z,14.03
2022-08-31T21:41:28.707Z,10.80
2022-08-31T21:43:56.878Z,13.20
2022-08-31T21:46:26.146Z,11.60
2022-08-31T21:48:55.450Z,12.87
2022-08-31T21:51:23.884Z,11.97
2022-08-31T21:53:53.634Z,12.73
2022-08-31T21:56:22.762Z,13.07
2022-08-31T21:58:50.072Z,13.13
2022-08-31T22:01:20.779Z,14.03
2022-08-31T22:03:54.222Z,13.50
2022-08-31T22:06:31.001Z,12.47
2022-08-31T22:09:02.012Z,13.57
2022-08-31T22:11:31.953Z,13.07
2022-08-31T22:14:00.022Z,14.77
2022-08-31T22:16:27.752Z,13.47
2022-08-31T22:19:01.283Z,14.60
2022-08-31T22:21:32.237Z,16.30
2022-08-31T22:24:04.016Z,14.97
2022-08-31T22:26:34.694Z,15.90
2022-08-31T22:29:01.456Z,13.30
2022-08-31T22:31:28.349Z,12.87
2022-08-31T22:33:55.395Z,15.60
2022-08-31T22:36:32.406Z,16.60
2022-08-31T22:39:05.647Z,16.27
2022-08-31T22:41:33.499Z,16.07
2022-08-31T22:44:00.557Z,14.53
2022-08-31T22:46:27.890Z,18.20
2022-08-31T22:48:54.661Z,15.53
2022-08-31T22:51:22.359Z,15.80
2022-08-31T22:53:51.552Z,18.27
2022-08-31T22:56:27.901Z,16.00
2022-08-31T22:58:57.439Z,16.30
2022-08-31T23:01:27.393Z,17.83
2022-08-31T23:03:56.060Z,11.97
2022-08-31T23:06:24.863Z,16.17
2022-08-31T23:08:53.369Z,17.93
2022-08-31T23:11:22.116Z,18.70
2022-08-31T23:13:57.240Z,18.50
2022-08-31T23:16:27.515Z,20.00
2022-08-31T23:18:57.666Z,17.20
2022-08-31T23:21:26.081Z,19.30
2022-08-31T23:23:53.665Z,16.37
2022-08-31T23:26:21.244Z,20.30
2022-08-31T23:28:47.959Z,18.70
2022-08-31T23:31:14.838Z,20.03
2022-08-31T23:33:47.107Z,18.87
2022-08-31T23:36:13.964Z,19.10
2022-08-31T23:38:42.740Z,17.50
2022-08-31T23:41:13.672Z,19.73
2022-08-31T23:43:40.631Z,20.33
2022-08-31T23:46:07.319Z,19.83
2022-08-31T23:48:34.005Z,19.70
2022-08-31T23:51:01.729Z,24.10
2022-08-31T23:53:28.409Z,18.07
2022-08-31T23:55:55.108Z,19.27
2022-08-31T23:58:25.794Z,20.47
